sensor_id;sensor_type;location;lat;lon;timestamp;temperature;humidity
63537;DHT22;49686;51.880;5.632;2023-09-12T00:01:19;18.80;99.90
63537;DHT22;49686;51.880;5.632;2023-09-12T00:03:45;18.80;99.90
63537;DHT22;49686;51.880;5.632;2023-09-12T00:06:12;18.80;99.90
63537;DHT22;49686;51.880;5.632;2023-09-12T00:08:39;18.70;99.90
63537;DHT22;49686;51.880;5.632;2023-09-12T00:11:08;18.70;99.90
63537;DHT22;49686;51.880;5.632;2023-09-12T00:13:35;18.70;99.90
63537;DHT22;49686;51.880;5.632;2023-09-12T00:16:03;18.60;99.90
63537;DHT22;49686;51.880;5.632;2023-09-12T00:18:30;18.60;99.90
63537;DHT22;49686;51.880;5.632;2023-09-12T00:20:57;18.50;99.90
63537;DHT22;49686;51.880;5.632;2023-09-12T00:23:24;18.50;99.90
63537;DHT22;49686;51.880;5.632;2023-09-12T00:25:51;18.40;99.90
63537;DHT22;49686;51.880;5.632;2023-09-12T00:28:18;18.40;99.90
63537;DHT22;49686;51.880;5.632;2023-09-12T00:30:45;18.40;99.90
63537;DHT22;49686;51.880;5.632;2023-09-12T00:33:13;18.40;99.90
63537;DHT22;49686;51.880;5.632;2023-09-12T00:35:40;18.30;99.90
63537;DHT22;49686;51.880;5.632;2023-09-12T00:38:08;18.30;99.90
63537;DHT22;49686;51.880;5.632;2023-09-12T00:40:35;18.30;99.90
63537;DHT22;49686;51.880;5.632;2023-09-12T00:43:02;18.30;99.90
63537;DHT22;49686;51.880;5.632;2023-09-12T00:45:29;18.30;99.90
63537;DHT22;49686;51.880;5.632;2023-09-12T00:47:58;18.30;99.90
63537;DHT22;49686;51.880;5.632;2023-09-12T00:50:27;18.30;99.90
63537;DHT22;49686;51.880;5.632;2023-09-12T00:52:55;18.40;99.90
63537;DHT22;49686;51.880;5.632;2023-09-12T00:55:22;18.50;99.90
63537;DHT22;49686;51.880;5.632;2023-09-12T00:57:49;18.40;99.90
63537;DHT22;49686;51.880;5.632;2023-09-12T01:00:17;18.40;99.90
63537;DHT22;49686;51.880;5.632;2023-09-12T01:02:46;18.30;99.90
63537;DHT22;49686;51.880;5.632;2023-09-12T01:05:14;18.30;99.90
63537;DHT22;49686;51.880;5.632;2023-09-12T01:07:43;18.20;99.90
63537;DHT22;49686;51.880;5.632;2023-09-12T01:10:10;18.20;99.90
63537;DHT22;49686;51.880;5.632;2023-09-12T01:12:37;18.20;99.90
63537;DHT22;49686;51.880;5.632;2023-09-12T01:15:05;18.20;99.90
63537;DHT22;49686;51.880;5.632;2023-09-12T01:17:32;18.30;99.90
63537;DHT22;49686;51.880;5.632;2023-09-12T01:19:59;18.30;99.90
63537;DHT22;49686;51.880;5.632;2023-09-12T01:22:48;18.30;99.90
63537;DHT22;49686;51.880;5.632;2023-09-12T01:25:41;18.30;99.90
63537;DHT22;49686;51.880;5.632;2023-09-12T01:28:12;18.20;99.90
63537;DHT22;49686;51.880;5.632;2023-09-12T01:30:42;18.20;99.90
63537;DHT22;49686;51.880;5.632;2023-09-12T01:33:10;18.20;99.90
63537;DHT22;49686;51.880;5.632;2023-09-12T01:35:37;18.20;99.90
63537;DHT22;49686;51.880;5.632;2023-09-12T01:38:04;18.10;99.90
63537;DHT22;49686;51.880;5.632;2023-09-12T01:40:36;18.10;99.90
63537;DHT22;49686;51.880;5.632;2023-09-12T01:43:06;18.10;99.90
63537;DHT22;49686;51.880;5.632;2023-09-12T01:45:35;18.00;99.90
63537;DHT22;49686;51.880;5.632;2023-09-12T01:48:04;18.00;99.90
63537;DHT22;49686;51.880;5.632;2023-09-12T01:50:32;17.90;99.90
63537;DHT22;49686;51.880;5.632;2023-09-12T01:52:59;17.90;99.90
63537;DHT22;49686;51.880;5.632;2023-09-12T01:55:27;17.90;99.90
63537;DHT22;49686;51.880;5.632;2023-09-12T01:57:54;17.80;99.90
63537;DHT22;49686;51.880;5.632;2023-09-12T02:00:21;17.80;99.90
63537;DHT22;49686;51.880;5.632;2023-09-12T02:02:49;17.80;99.90
63537;DHT22;49686;51.880;5.632;2023-09-12T02:05:18;17.70;99.90
63537;DHT22;49686;51.880;5.632;2023-09-12T02:07:46;17.70;99.90
63537;DHT22;49686;51.880;5.632;2023-09-12T02:10:13;17.60;99.90
63537;DHT22;49686;51.880;5.632;2023-09-12T02:12:41;17.60;99.90
63537;DHT22;49686;51.880;5.632;2023-09-12T02:15:08;17.60;99.90
63537;DHT22;49686;51.880;5.632;2023-09-12T02:17:35;17.70;99.90
63537;DHT22;49686;51.880;5.632;2023-09-12T02:20:05;17.60;99.90
63537;DHT22;49686;51.880;5.632;2023-09-12T02:22:32;17.60;99.90
63537;DHT22;49686;51.880;5.632;2023-09-12T02:24:58;17.60;99.90
63537;DHT22;49686;51.880;5.632;2023-09-12T02:27:25;17.60;99.90
63537;DHT22;49686;51.880;5.632;2023-09-12T02:29:52;17.60;99.90
63537;DHT22;49686;51.880;5.632;2023-09-12T02:32:19;17.60;99.90
63537;DHT22;49686;51.880;5.632;2023-09-12T02:34:46;17.60;99.90
63537;DHT22;49686;51.880;5.632;2023-09-12T02:37:14;17.60;99.90
63537;DHT22;49686;51.880;5.632;2023-09-12T02:39:41;17.60;99.90
63537;DHT22;49686;51.880;5.632;2023-09-12T02:42:08;17.70;99.90
63537;DHT22;49686;51.880;5.632;2023-09-12T02:44:35;17.70;99.90
63537;DHT22;49686;51.880;5.632;2023-09-12T02:47:02;17.60;99.90
63537;DHT22;49686;51.880;5.632;2023-09-12T02:49:30;17.50;99.90
63537;DHT22;49686;51.880;5.632;2023-09-12T02:51:58;17.40;99.90
63537;DHT22;49686;51.880;5.632;2023-09-12T02:54:26;17.30;99.90
63537;DHT22;49686;51.880;5.632;2023-09-12T02:56:53;17.30;99.90
63537;DHT22;49686;51.880;5.632;2023-09-12T02:59:20;17.20;99.90
63537;DHT22;49686;51.880;5.632;2023-09-12T03:01:46;17.10;99.90
63537;DHT22;49686;51.880;5.632;2023-09-12T03:04:13;17.20;99.90
63537;DHT22;49686;51.880;5.632;2023-09-12T03:06:40;17.10;99.90
63537;DHT22;49686;51.880;5.632;2023-09-12T03:09:07;17.10;99.90
63537;DHT22;49686;51.880;5.632;2023-09-12T03:11:35;17.10;99.90
63537;DHT22;49686;51.880;5.632;2023-09-12T03:14:02;17.20;99.90
63537;DHT22;49686;51.880;5.632;2023-09-12T03:16:29;17.20;99.90
63537;DHT22;49686;51.880;5.632;2023-09-12T03:18:55;17.20;99.90
63537;DHT22;49686;51.880;5.632;2023-09-12T03:21:22;17.10;99.90
63537;DHT22;49686;51.880;5.632;2023-09-12T03:23:49;17.10;99.90
63537;DHT22;49686;51.880;5.632;2023-09-12T03:26:16;17.10;99.90
63537;DHT22;49686;51.880;5.632;2023-09-12T03:28:44;17.10;99.90
63537;DHT22;49686;51.880;5.632;2023-09-12T03:31:13;17.10;99.90
63537;DHT22;49686;51.880;5.632;2023-09-12T03:33:41;17.10;99.90
63537;DHT22;49686;51.880;5.632;2023-09-12T03:36:08;17.10;99.90
63537;DHT22;49686;51.880;5.632;2023-09-12T03:38:35;17.20;99.90
63537;DHT22;49686;51.880;5.632;2023-09-12T03:41:02;17.20;99.90
63537;DHT22;49686;51.880;5.632;2023-09-12T03:43:30;17.20;99.90
63537;DHT22;49686;51.880;5.632;2023-09-12T03:45:58;17.30;99.90
63537;DHT22;49686;51.880;5.632;2023-09-12T03:48:25;17.30;99.90
63537;DHT22;49686;51.880;5.632;2023-09-12T03:50:52;17.40;99.90
63537;DHT22;49686;51.880;5.632;2023-09-12T03:53:18;17.40;99.90
63537;DHT22;49686;51.880;5.632;2023-09-12T03:55:45;17.50;99.90
63537;DHT22;49686;51.880;5.632;2023-09-12T03:58:12;17.60;99.90
63537;DHT22;49686;51.880;5.632;2023-09-12T04:00:39;17.60;99.90
63537;DHT22;49686;51.880;5.632;2023-09-12T04:03:07;17.70;99.90
63537;DHT22;49686;51.880;5.632;2023-09-12T04:05:34;17.70;99.90
63537;DHT22;49686;51.880;5.632;2023-09-12T04:08:01;17.60;99.90
63537;DHT22;49686;51.880;5.632;2023-09-12T04:10:28;17.70;99.90
63537;DHT22;49686;51.880;5.632;2023-09-12T04:12:55;17.70;99.90
63537;DHT22;49686;51.880;5.632;2023-09-12T04:15:22;17.70;99.90
63537;DHT22;49686;51.880;5.632;2023-09-12T04:17:49;17.70;99.90
63537;DHT22;49686;51.880;5.632;2023-09-12T04:20:17;17.80;99.90
63537;DHT22;49686;51.880;5.632;2023-09-12T04:22:44;17.80;99.90
63537;DHT22;49686;51.880;5.632;2023-09-12T04:25:11;17.80;99.90
63537;DHT22;49686;51.880;5.632;2023-09-12T04:27:37;17.90;99.90
63537;DHT22;49686;51.880;5.632;2023-09-12T04:30:05;17.90;99.90
63537;DHT22;49686;51.880;5.632;2023-09-12T04:32:32;17.90;99.90
63537;DHT22;49686;51.880;5.632;2023-09-12T04:34:59;17.90;99.90
63537;DHT22;49686;51.880;5.632;2023-09-12T04:37:27;18.00;99.90
63537;DHT22;49686;51.880;5.632;2023-09-12T04:39:54;18.00;99.90
63537;DHT22;49686;51.880;5.632;2023-09-12T04:42:21;18.10;99.90
63537;DHT22;49686;51.880;5.632;2023-09-12T04:44:48;18.10;99.90
63537;DHT22;49686;51.880;5.632;2023-09-12T04:47:15;18.10;99.90
63537;DHT22;49686;51.880;5.632;2023-09-12T04:49:45;18.10;99.90
63537;DHT22;49686;51.880;5.632;2023-09-12T04:52:12;18.10;99.90
63537;DHT22;49686;51.880;5.632;2023-09-12T04:54:40;18.10;99.90
63537;DHT22;49686;51.880;5.632;2023-09-12T04:57:07;18.10;99.90
63537;DHT22;49686;51.880;5.632;2023-09-12T04:59:34;18.10;99.90
63537;DHT22;49686;51.880;5.632;2023-09-12T05:02:01;18.10;99.90
63537;DHT22;49686;51.880;5.632;2023-09-12T05:04:28;18.20;99.90
63537;DHT22;49686;51.880;5.632;2023-09-12T05:06:54;18.10;99.90
63537;DHT22;49686;51.880;5.632;2023-09-12T05:09:21;18.20;99.90
63537;DHT22;49686;51.880;5.632;2023-09-12T05:11:49;18.20;99.90
63537;DHT22;49686;51.880;5.632;2023-09-12T05:14:16;18.10;99.90
63537;DHT22;49686;51.880;5.632;2023-09-12T05:16:43;18.10;99.90
63537;DHT22;49686;51.880;5.632;2023-09-12T05:19:10;18.10;99.90
63537;DHT22;49686;51.880;5.632;2023-09-12T05:21:37;18.00;99.90
63537;DHT22;49686;51.880;5.632;2023-09-12T05:24:05;18.00;99.90
63537;DHT22;49686;51.880;5.632;2023-09-12T05:26:32;18.00;99.90
63537;DHT22;49686;51.880;5.632;2023-09-12T05:29:00;18.00;99.90
63537;DHT22;49686;51.880;5.632;2023-09-12T05:31:28;18.00;99.90
63537;DHT22;49686;51.880;5.632;2023-09-12T05:33:55;17.90;99.90
63537;DHT22;49686;51.880;5.632;2023-09-12T05:36:22;17.90;99.90
63537;DHT22;49686;51.880;5.632;2023-09-12T05:38:48;17.90;99.90
63537;DHT22;49686;51.880;5.632;2023-09-12T05:41:15;17.90;99.90
63537;DHT22;49686;51.880;5.632;2023-09-12T05:43:42;17.90;99.90
63537;DHT22;49686;51.880;5.632;2023-09-12T05:46:10;17.90;99.90
63537;DHT22;49686;51.880;5.632;2023-09-12T05:48:37;17.90;99.90
63537;DHT22;49686;51.880;5.632;2023-09-12T05:51:04;18.00;99.90
63537;DHT22;49686;51.880;5.632;2023-09-12T05:53:31;18.00;99.90
63537;DHT22;49686;51.880;5.632;2023-09-12T05:55:57;18.00;99.90
63537;DHT22;49686;51.880;5.632;2023-09-12T05:58:24;18.00;99.90
63537;DHT22;49686;51.880;5.632;2023-09-12T06:00:51;18.00;99.90
63537;DHT22;49686;51.880;5.632;2023-09-12T06:03:19;18.10;99.90
63537;DHT22;49686;51.880;5.632;2023-09-12T06:05:46;18.10;99.90
63537;DHT22;49686;51.880;5.632;2023-09-12T06:08:13;18.20;99.90
63537;DHT22;49686;51.880;5.632;2023-09-12T06:10:40;18.30;99.90
63537;DHT22;49686;51.880;5.632;2023-09-12T06:13:07;18.30;99.90
63537;DHT22;49686;51.880;5.632;2023-09-12T06:15:36;18.30;99.90
63537;DHT22;49686;51.880;5.632;2023-09-12T06:18:04;18.40;99.90
63537;DHT22;49686;51.880;5.632;2023-09-12T06:20:32;18.30;99.90
63537;DHT22;49686;51.880;5.632;2023-09-12T06:22:59;18.20;99.90
63537;DHT22;49686;51.880;5.632;2023-09-12T06:25:26;18.20;99.90
63537;DHT22;49686;51.880;5.632;2023-09-12T06:27:53;18.20;99.90
63537;DHT22;49686;51.880;5.632;2023-09-12T06:30:20;18.20;99.90
63537;DHT22;49686;51.880;5.632;2023-09-12T06:32:47;18.20;99.90
63537;DHT22;49686;51.880;5.632;2023-09-12T06:35:14;18.10;99.90
63537;DHT22;49686;51.880;5.632;2023-09-12T06:37:43;18.20;99.90
63537;DHT22;49686;51.880;5.632;2023-09-12T06:40:10;18.20;99.90
63537;DHT22;49686;51.880;5.632;2023-09-12T06:42:37;18.20;99.90
63537;DHT22;49686;51.880;5.632;2023-09-12T06:45:05;18.20;99.90
63537;DHT22;49686;51.880;5.632;2023-09-12T06:47:31;18.20;99.90
63537;DHT22;49686;51.880;5.632;2023-09-12T06:49:58;18.30;99.90
63537;DHT22;49686;51.880;5.632;2023-09-12T06:52:25;18.30;99.90
63537;DHT22;49686;51.880;5.632;2023-09-12T06:54:53;18.40;99.90
63537;DHT22;49686;51.880;5.632;2023-09-12T06:57:21;18.40;99.90
63537;DHT22;49686;51.880;5.632;2023-09-12T06:59:48;18.50;99.90
63537;DHT22;49686;51.880;5.632;2023-09-12T07:02:15;18.60;99.90
63537;DHT22;49686;51.880;5.632;2023-09-12T07:04:42;18.70;99.90
63537;DHT22;49686;51.880;5.632;2023-09-12T07:07:09;18.70;99.90
63537;DHT22;49686;51.880;5.632;2023-09-12T07:09:36;18.80;99.90
63537;DHT22;49686;51.880;5.632;2023-09-12T07:12:04;18.90;99.90
63537;DHT22;49686;51.880;5.632;2023-09-12T07:14:31;19.00;99.90
63537;DHT22;49686;51.880;5.632;2023-09-12T07:16:58;19.10;99.90
63537;DHT22;49686;51.880;5.632;2023-09-12T07:19:25;19.10;99.90
63537;DHT22;49686;51.880;5.632;2023-09-12T07:21:51;19.10;99.90
63537;DHT22;49686;51.880;5.632;2023-09-12T07:24:18;19.10;99.90
63537;DHT22;49686;51.880;5.632;2023-09-12T07:26:45;19.20;99.90
63537;DHT22;49686;51.880;5.632;2023-09-12T07:29:13;19.20;99.90
63537;DHT22;49686;51.880;5.632;2023-09-12T07:31:40;19.20;99.90
63537;DHT22;49686;51.880;5.632;2023-09-12T07:34:07;19.20;99.90
63537;DHT22;49686;51.880;5.632;2023-09-12T07:36:35;19.20;99.90
63537;DHT22;49686;51.880;5.632;2023-09-12T07:39:02;19.30;99.90
63537;DHT22;49686;51.880;5.632;2023-09-12T07:41:29;19.30;99.90
63537;DHT22;49686;51.880;5.632;2023-09-12T07:43:57;19.30;99.90
63537;DHT22;49686;51.880;5.632;2023-09-12T07:46:26;19.40;99.90
63537;DHT22;49686;51.880;5.632;2023-09-12T07:48:53;19.30;99.90
63537;DHT22;49686;51.880;5.632;2023-09-12T07:51:20;19.40;99.90
63537;DHT22;49686;51.880;5.632;2023-09-12T07:53:47;19.40;99.90
63537;DHT22;49686;51.880;5.632;2023-09-12T07:56:13;19.80;99.90
63537;DHT22;49686;51.880;5.632;2023-09-12T07:58:40;20.10;99.90
63537;DHT22;49686;51.880;5.632;2023-09-12T08:01:08;20.30;99.90
63537;DHT22;49686;51.880;5.632;2023-09-12T08:03:37;20.60;99.90
63537;DHT22;49686;51.880;5.632;2023-09-12T08:06:04;20.80;99.90
63537;DHT22;49686;51.880;5.632;2023-09-12T08:08:32;20.70;99.90
63537;DHT22;49686;51.880;5.632;2023-09-12T08:10:58;20.80;99.90
63537;DHT22;49686;51.880;5.632;2023-09-12T08:13:27;21.00;99.90
63537;DHT22;49686;51.880;5.632;2023-09-12T08:15:54;21.60;99.90
63537;DHT22;49686;51.880;5.632;2023-09-12T08:18:21;22.00;99.90
63537;DHT22;49686;51.880;5.632;2023-09-12T08:20:49;22.10;99.90
63537;DHT22;49686;51.880;5.632;2023-09-12T08:23:16;22.30;99.90
63537;DHT22;49686;51.880;5.632;2023-09-12T08:25:43;22.50;99.90
63537;DHT22;49686;51.880;5.632;2023-09-12T08:28:11;22.80;99.90
63537;DHT22;49686;51.880;5.632;2023-09-12T08:30:38;22.90;99.90
63537;DHT22;49686;51.880;5.632;2023-09-12T08:33:05;23.10;99.90
63537;DHT22;49686;51.880;5.632;2023-09-12T08:35:32;23.30;99.90
63537;DHT22;49686;51.880;5.632;2023-09-12T08:38:00;23.50;99.90
63537;DHT22;49686;51.880;5.632;2023-09-12T08:40:27;23.40;99.90
63537;DHT22;49686;51.880;5.632;2023-09-12T08:42:54;23.40;99.90
63537;DHT22;49686;51.880;5.632;2023-09-12T08:45:21;23.70;99.90
63537;DHT22;49686;51.880;5.632;2023-09-12T08:47:51;23.90;99.90
63537;DHT22;49686;51.880;5.632;2023-09-12T08:50:20;24.30;99.90
63537;DHT22;49686;51.880;5.632;2023-09-12T08:52:47;24.50;99.90
63537;DHT22;49686;51.880;5.632;2023-09-12T08:55:35;24.30;99.90
63537;DHT22;49686;51.880;5.632;2023-09-12T08:58:04;24.30;99.90
63537;DHT22;49686;51.880;5.632;2023-09-12T09:00:31;24.30;99.90
63537;DHT22;49686;51.880;5.632;2023-09-12T09:03:00;23.90;99.90
63537;DHT22;49686;51.880;5.632;2023-09-12T09:05:28;24.20;99.90
63537;DHT22;49686;51.880;5.632;2023-09-12T09:07:55;24.60;99.90
63537;DHT22;49686;51.880;5.632;2023-09-12T09:10:23;24.40;99.90
63537;DHT22;49686;51.880;5.632;2023-09-12T09:13:12;24.50;99.90
63537;DHT22;49686;51.880;5.632;2023-09-12T09:15:39;24.70;99.90
63537;DHT22;49686;51.880;5.632;2023-09-12T09:18:06;25.00;99.90
63537;DHT22;49686;51.880;5.632;2023-09-12T09:20:34;25.30;99.90
63537;DHT22;49686;51.880;5.632;2023-09-12T09:23:03;25.20;99.90
63537;DHT22;49686;51.880;5.632;2023-09-12T09:25:30;24.60;99.90
63537;DHT22;49686;51.880;5.632;2023-09-12T09:27:56;24.60;99.90
63537;DHT22;49686;51.880;5.632;2023-09-12T09:30:41;24.60;99.90
63537;DHT22;49686;51.880;5.632;2023-09-12T09:33:09;24.30;99.90
63537;DHT22;49686;51.880;5.632;2023-09-12T09:35:36;24.20;99.90
63537;DHT22;49686;51.880;5.632;2023-09-12T09:38:06;23.80;99.90
63537;DHT22;49686;51.880;5.632;2023-09-12T09:40:34;23.40;99.90
63537;DHT22;49686;51.880;5.632;2023-09-12T09:43:02;23.40;99.90
63537;DHT22;49686;51.880;5.632;2023-09-12T09:45:30;23.30;99.90
63537;DHT22;49686;51.880;5.632;2023-09-12T09:48:04;23.30;99.90
63537;DHT22;49686;51.880;5.632;2023-09-12T09:50:33;23.60;99.90
63537;DHT22;49686;51.880;5.632;2023-09-12T09:53:00;23.90;99.90
63537;DHT22;49686;51.880;5.632;2023-09-12T09:55:27;24.30;99.90
63537;DHT22;49686;51.880;5.632;2023-09-12T09:57:54;24.60;99.90
63537;DHT22;49686;51.880;5.632;2023-09-12T10:00:22;24.30;99.90
63537;DHT22;49686;51.880;5.632;2023-09-12T10:02:50;24.80;99.90
63537;DHT22;49686;51.880;5.632;2023-09-12T10:05:19;24.70;99.90
63537;DHT22;49686;51.880;5.632;2023-09-12T10:07:48;24.70;99.90
63537;DHT22;49686;51.880;5.632;2023-09-12T10:10:15;24.50;99.90
63537;DHT22;49686;51.880;5.632;2023-09-12T10:12:48;24.90;99.90
63537;DHT22;49686;51.880;5.632;2023-09-12T10:15:18;25.00;99.90
63537;DHT22;49686;51.880;5.632;2023-09-12T10:17:47;25.00;99.90
63537;DHT22;49686;51.880;5.632;2023-09-12T10:20:21;25.30;99.90
63537;DHT22;49686;51.880;5.632;2023-09-12T10:22:56;25.70;99.90
63537;DHT22;49686;51.880;5.632;2023-09-12T10:25:27;26.40;99.90
63537;DHT22;49686;51.880;5.632;2023-09-12T10:27:55;26.60;99.90
63537;DHT22;49686;51.880;5.632;2023-09-12T10:30:22;26.60;99.90
63537;DHT22;49686;51.880;5.632;2023-09-12T10:32:49;26.10;99.90
63537;DHT22;49686;51.880;5.632;2023-09-12T10:35:17;26.00;99.90
63537;DHT22;49686;51.880;5.632;2023-09-12T10:37:46;26.10;99.90
63537;DHT22;49686;51.880;5.632;2023-09-12T10:40:16;26.30;99.90
63537;DHT22;49686;51.880;5.632;2023-09-12T10:42:44;26.40;99.90
63537;DHT22;49686;51.880;5.632;2023-09-12T10:45:13;26.20;99.90
63537;DHT22;49686;51.880;5.632;2023-09-12T10:47:39;26.40;99.90
63537;DHT22;49686;51.880;5.632;2023-09-12T10:50:07;26.40;99.90
63537;DHT22;49686;51.880;5.632;2023-09-12T10:52:34;26.50;99.90
63537;DHT22;49686;51.880;5.632;2023-09-12T10:55:04;26.50;99.90
63537;DHT22;49686;51.880;5.632;2023-09-12T10:57:32;26.30;99.90
63537;DHT22;49686;51.880;5.632;2023-09-12T11:00:11;26.50;99.90
63537;DHT22;49686;51.880;5.632;2023-09-12T11:02:41;26.60;99.90
63537;DHT22;49686;51.880;5.632;2023-09-12T11:05:37;27.10;99.90
63537;DHT22;49686;51.880;5.632;2023-09-12T11:08:04;28.00;99.90
63537;DHT22;49686;51.880;5.632;2023-09-12T11:10:32;28.40;99.90
63537;DHT22;49686;51.880;5.632;2023-09-12T11:12:59;28.60;99.90
63537;DHT22;49686;51.880;5.632;2023-09-12T11:15:27;28.10;99.90
63537;DHT22;49686;51.880;5.632;2023-09-12T11:18:02;28.30;99.90
63537;DHT22;49686;51.880;5.632;2023-09-12T11:20:53;28.40;99.90
63537;DHT22;49686;51.880;5.632;2023-09-12T11:23:25;28.80;99.90
63537;DHT22;49686;51.880;5.632;2023-09-12T11:26:04;28.40;99.90
63537;DHT22;49686;51.880;5.632;2023-09-12T11:28:31;28.20;99.90
63537;DHT22;49686;51.880;5.632;2023-09-12T11:30:58;28.40;99.90
63537;DHT22;49686;51.880;5.632;2023-09-12T11:33:25;28.60;99.90
63537;DHT22;49686;51.880;5.632;2023-09-12T11:35:53;28.50;99.90
63537;DHT22;49686;51.880;5.632;2023-09-12T11:38:26;28.50;99.90
63537;DHT22;49686;51.880;5.632;2023-09-12T11:40:53;28.50;99.90
63537;DHT22;49686;51.880;5.632;2023-09-12T11:43:23;27.90;99.90
63537;DHT22;49686;51.880;5.632;2023-09-12T11:45:50;28.50;99.90
63537;DHT22;49686;51.880;5.632;2023-09-12T11:48:18;29.20;99.90
63537;DHT22;49686;51.880;5.632;2023-09-12T11:50:52;29.00;99.90
63537;DHT22;49686;51.880;5.632;2023-09-12T11:53:20;28.20;99.90
63537;DHT22;49686;51.880;5.632;2023-09-12T11:55:48;27.10;99.90
63537;DHT22;49686;51.880;5.632;2023-09-12T11:58:16;26.30;99.90
63537;DHT22;49686;51.880;5.632;2023-09-12T12:00:45;26.10;99.90
63537;DHT22;49686;51.880;5.632;2023-09-12T12:03:12;26.10;99.90
63537;DHT22;49686;51.880;5.632;2023-09-12T12:05:39;26.40;99.90
63537;DHT22;49686;51.880;5.632;2023-09-12T12:08:08;26.90;99.90
63537;DHT22;49686;51.880;5.632;2023-09-12T12:10:56;27.10;99.90
63537;DHT22;49686;51.880;5.632;2023-09-12T12:13:23;27.20;99.90
63537;DHT22;49686;51.880;5.632;2023-09-12T12:15:54;26.50;99.90
63537;DHT22;49686;51.880;5.632;2023-09-12T12:18:21;25.80;99.90
63537;DHT22;49686;51.880;5.632;2023-09-12T12:20:48;25.50;99.90
63537;DHT22;49686;51.880;5.632;2023-09-12T12:23:15;25.20;99.90
63537;DHT22;49686;51.880;5.632;2023-09-12T12:25:41;25.30;99.90
63537;DHT22;49686;51.880;5.632;2023-09-12T12:28:08;25.40;99.90
63537;DHT22;49686;51.880;5.632;2023-09-12T12:30:36;25.30;99.90
63537;DHT22;49686;51.880;5.632;2023-09-12T12:33:09;25.30;99.90
63537;DHT22;49686;51.880;5.632;2023-09-12T12:36:00;25.40;99.90
63537;DHT22;49686;51.880;5.632;2023-09-12T12:38:27;25.40;99.90
63537;DHT22;49686;51.880;5.632;2023-09-12T12:40:54;25.40;99.90
63537;DHT22;49686;51.880;5.632;2023-09-12T12:43:21;25.40;99.90
63537;DHT22;49686;51.880;5.632;2023-09-12T12:45:55;25.40;99.90
63537;DHT22;49686;51.880;5.632;2023-09-12T12:48:34;25.10;99.90
63537;DHT22;49686;51.880;5.632;2023-09-12T12:51:14;25.10;99.90
63537;DHT22;49686;51.880;5.632;2023-09-12T12:53:42;25.30;99.90
63537;DHT22;49686;51.880;5.632;2023-09-12T12:56:19;25.40;99.90
63537;DHT22;49686;51.880;5.632;2023-09-12T12:58:48;25.50;99.90
63537;DHT22;49686;51.880;5.632;2023-09-12T13:01:16;25.70;99.90
63537;DHT22;49686;51.880;5.632;2023-09-12T13:03:44;25.80;99.90
63537;DHT22;49686;51.880;5.632;2023-09-12T13:06:12;25.80;99.90
63537;DHT22;49686;51.880;5.632;2023-09-12T13:08:40;25.70;99.90
63537;DHT22;49686;51.880;5.632;2023-09-12T13:11:08;25.50;99.90
63537;DHT22;49686;51.880;5.632;2023-09-12T13:13:35;25.60;99.90
63537;DHT22;49686;51.880;5.632;2023-09-12T13:16:02;25.70;99.90
63537;DHT22;49686;51.880;5.632;2023-09-12T13:18:29;25.70;99.90
63537;DHT22;49686;51.880;5.632;2023-09-12T13:20:57;25.60;99.90
63537;DHT22;49686;51.880;5.632;2023-09-12T13:23:24;25.50;99.90
63537;DHT22;49686;51.880;5.632;2023-09-12T13:25:51;25.70;99.90
63537;DHT22;49686;51.880;5.632;2023-09-12T13:28:18;26.10;99.90
63537;DHT22;49686;51.880;5.632;2023-09-12T13:30:45;26.50;99.90
63537;DHT22;49686;51.880;5.632;2023-09-12T13:33:13;26.90;99.90
63537;DHT22;49686;51.880;5.632;2023-09-12T13:35:40;27.10;99.90
63537;DHT22;49686;51.880;5.632;2023-09-12T13:38:08;27.40;99.90
63537;DHT22;49686;51.880;5.632;2023-09-12T13:40:36;27.80;99.90
63537;DHT22;49686;51.880;5.632;2023-09-12T13:43:03;28.10;99.90
63537;DHT22;49686;51.880;5.632;2023-09-12T13:45:30;28.20;99.90
63537;DHT22;49686;51.880;5.632;2023-09-12T13:47:57;28.40;99.90
63537;DHT22;49686;51.880;5.632;2023-09-12T13:50:24;28.80;99.90
63537;DHT22;49686;51.880;5.632;2023-09-12T13:52:51;28.90;98.80
63537;DHT22;49686;51.880;5.632;2023-09-12T13:55:20;29.10;99.30
63537;DHT22;49686;51.880;5.632;2023-09-12T13:58:06;28.90;97.20
63537;DHT22;49686;51.880;5.632;2023-09-12T14:00:34;29.00;97.40
63537;DHT22;49686;51.880;5.632;2023-09-12T14:03:04;29.00;97.80
63537;DHT22;49686;51.880;5.632;2023-09-12T14:05:32;29.20;97.60
63537;DHT22;49686;51.880;5.632;2023-09-12T14:07:59;29.10;96.90
63537;DHT22;49686;51.880;5.632;2023-09-12T14:10:28;28.70;96.90
63537;DHT22;49686;51.880;5.632;2023-09-12T14:13:03;28.60;96.20
63537;DHT22;49686;51.880;5.632;2023-09-12T14:15:46;27.70;97.20
63537;DHT22;49686;51.880;5.632;2023-09-12T14:18:13;27.70;97.90
63537;DHT22;49686;51.880;5.632;2023-09-12T14:20:41;27.70;98.10
63537;DHT22;49686;51.880;5.632;2023-09-12T14:23:09;27.70;98.50
63537;DHT22;49686;51.880;5.632;2023-09-12T14:25:37;27.90;97.70
63537;DHT22;49686;51.880;5.632;2023-09-12T14:28:05;28.10;98.00
63537;DHT22;49686;51.880;5.632;2023-09-12T14:30:32;28.40;97.50
63537;DHT22;49686;51.880;5.632;2023-09-12T14:32:59;28.30;97.60
63537;DHT22;49686;51.880;5.632;2023-09-12T14:35:26;27.90;98.80
63537;DHT22;49686;51.880;5.632;2023-09-12T14:37:56;27.70;98.90
63537;DHT22;49686;51.880;5.632;2023-09-12T14:40:23;27.50;99.50
63537;DHT22;49686;51.880;5.632;2023-09-12T14:42:52;27.40;99.90
63537;DHT22;49686;51.880;5.632;2023-09-12T14:45:18;27.10;99.90
63537;DHT22;49686;51.880;5.632;2023-09-12T14:47:45;27.00;99.90
63537;DHT22;49686;51.880;5.632;2023-09-12T14:50:12;26.90;99.90
63537;DHT22;49686;51.880;5.632;2023-09-12T14:52:39;26.70;99.90
63537;DHT22;49686;51.880;5.632;2023-09-12T14:55:07;26.40;99.90
63537;DHT22;49686;51.880;5.632;2023-09-12T14:57:34;26.50;99.90
63537;DHT22;49686;51.880;5.632;2023-09-12T15:00:03;26.40;99.90
63537;DHT22;49686;51.880;5.632;2023-09-12T15:02:30;26.50;99.90
63537;DHT22;49686;51.880;5.632;2023-09-12T15:04:57;26.50;99.90
63537;DHT22;49686;51.880;5.632;2023-09-12T15:07:24;26.60;99.90
63537;DHT22;49686;51.880;5.632;2023-09-12T15:09:51;26.50;99.90
63537;DHT22;49686;51.880;5.632;2023-09-12T15:12:18;26.50;99.90
63537;DHT22;49686;51.880;5.632;2023-09-12T15:14:44;26.50;99.90
63537;DHT22;49686;51.880;5.632;2023-09-12T15:17:13;26.40;99.90
63537;DHT22;49686;51.880;5.632;2023-09-12T15:19:39;26.30;99.90
63537;DHT22;49686;51.880;5.632;2023-09-12T15:22:06;26.40;99.90
63537;DHT22;49686;51.880;5.632;2023-09-12T15:24:36;26.20;99.90
63537;DHT22;49686;51.880;5.632;2023-09-12T15:27:04;26.10;99.90
63537;DHT22;49686;51.880;5.632;2023-09-12T15:29:30;26.20;99.90
63537;DHT22;49686;51.880;5.632;2023-09-12T15:31:58;26.20;99.90
63537;DHT22;49686;51.880;5.632;2023-09-12T15:34:26;26.00;99.90
63537;DHT22;49686;51.880;5.632;2023-09-12T15:37:06;26.10;99.90